sensor_id;sensor_type;location;lat;lon;timestamp;P1;durP1;ratioP1;P2;durP2;ratioP2
11646;SDS011;5880;52.342;9.662;2024-01-30T00:01:53;6.53;;;5.37;;
11646;SDS011;5880;52.342;9.662;2024-01-30T00:04:18;6.60;;;5.70;;
11646;SDS011;5880;52.342;9.662;2024-01-30T00:06:44;5.83;;;5.23;;
11646;SDS011;5880;52.342;9.662;2024-01-30T00:09:10;6.90;;;5.13;;
11646;SDS011;5880;52.342;9.662;2024-01-30T00:11:36;7.23;;;5.30;;
11646;SDS011;5880;52.342;9.662;2024-01-30T00:14:03;7.80;;;5.50;;
11646;SDS011;5880;52.342;9.662;2024-01-30T00:16:29;7.97;;;6.03;;
11646;SDS011;5880;52.342;9.662;2024-01-30T00:18:56;8.70;;;5.83;;
11646;SDS011;5880;52.342;9.662;2024-01-30T00:21:22;7.10;;;5.27;;
11646;SDS011;5880;52.342;9.662;2024-01-30T00:23:48;8.63;;;6.03;;
11646;SDS011;5880;52.342;9.662;2024-01-30T00:26:14;7.67;;;6.00;;
11646;SDS011;5880;52.342;9.662;2024-01-30T00:28:40;7.73;;;6.07;;
11646;SDS011;5880;52.342;9.662;2024-01-30T00:31:06;7.87;;;5.90;;
11646;SDS011;5880;52.342;9.662;2024-01-30T00:33:33;8.80;;;6.27;;
11646;SDS011;5880;52.342;9.662;2024-01-30T00:35:58;7.70;;;5.93;;
11646;SDS011;5880;52.342;9.662;2024-01-30T00:38:24;6.80;;;5.80;;
11646;SDS011;5880;52.342;9.662;2024-01-30T00:40:50;7.83;;;6.40;;
11646;SDS011;5880;52.342;9.662;2024-01-30T00:43:16;7.80;;;5.93;;
11646;SDS011;5880;52.342;9.662;2024-01-30T00:45:43;7.50;;;5.93;;
11646;SDS011;5880;52.342;9.662;2024-01-30T00:48:09;7.50;;;6.10;;
11646;SDS011;5880;52.342;9.662;2024-01-30T00:50:34;7.90;;;5.87;;
11646;SDS011;5880;52.342;9.662;2024-01-30T00:53:00;7.93;;;6.23;;
11646;SDS011;5880;52.342;9.662;2024-01-30T00:55:26;8.17;;;6.30;;
11646;SDS011;5880;52.342;9.662;2024-01-30T00:57:51;7.20;;;5.97;;
11646;SDS011;5880;52.342;9.662;2024-01-30T01:00:17;7.80;;;6.20;;
11646;SDS011;5880;52.342;9.662;2024-01-30T01:02:43;8.17;;;6.00;;
11646;SDS011;5880;52.342;9.662;2024-01-30T01:05:09;9.27;;;6.33;;
11646;SDS011;5880;52.342;9.662;2024-01-30T01:07:35;7.63;;;6.30;;
11646;SDS011;5880;52.342;9.662;2024-01-30T01:10:01;7.50;;;6.23;;
11646;SDS011;5880;52.342;9.662;2024-01-30T01:12:27;7.33;;;6.10;;
11646;SDS011;5880;52.342;9.662;2024-01-30T01:14:53;6.33;;;5.63;;
11646;SDS011;5880;52.342;9.662;2024-01-30T01:17:19;7.50;;;6.03;;
11646;SDS011;5880;52.342;9.662;2024-01-30T01:19:44;8.73;;;6.97;;
11646;SDS011;5880;52.342;9.662;2024-01-30T01:22:10;7.10;;;6.27;;
11646;SDS011;5880;52.342;9.662;2024-01-30T01:24:36;8.63;;;6.57;;
11646;SDS011;5880;52.342;9.662;2024-01-30T01:27:02;7.40;;;5.97;;
11646;SDS011;5880;52.342;9.662;2024-01-30T01:29:28;8.27;;;6.57;;
11646;SDS011;5880;52.342;9.662;2024-01-30T01:31:57;9.47;;;6.43;;
11646;SDS011;5880;52.342;9.662;2024-01-30T01:34:23;9.43;;;6.70;;
11646;SDS011;5880;52.342;9.662;2024-01-30T01:36:49;11.83;;;6.97;;
11646;SDS011;5880;52.342;9.662;2024-01-30T01:39:16;7.70;;;6.40;;
11646;SDS011;5880;52.342;9.662;2024-01-30T01:41:42;8.23;;;6.07;;
11646;SDS011;5880;52.342;9.662;2024-01-30T01:44:08;8.13;;;6.57;;
11646;SDS011;5880;52.342;9.662;2024-01-30T01:46:34;9.40;;;6.77;;
11646;SDS011;5880;52.342;9.662;2024-01-30T01:49:02;10.93;;;7.40;;
11646;SDS011;5880;52.342;9.662;2024-01-30T01:51:29;8.73;;;6.97;;
11646;SDS011;5880;52.342;9.662;2024-01-30T01:53:59;8.10;;;6.97;;
11646;SDS011;5880;52.342;9.662;2024-01-30T01:56:30;11.40;;;7.00;;
11646;SDS011;5880;52.342;9.662;2024-01-30T01:59:05;10.73;;;7.33;;
11646;SDS011;5880;52.342;9.662;2024-01-30T02:01:33;8.70;;;7.47;;
11646;SDS011;5880;52.342;9.662;2024-01-30T02:03:59;9.83;;;7.30;;
11646;SDS011;5880;52.342;9.662;2024-01-30T02:06:26;9.40;;;7.30;;
11646;SDS011;5880;52.342;9.662;2024-01-30T02:08:52;8.07;;;6.70;;
11646;SDS011;5880;52.342;9.662;2024-01-30T02:11:22;8.53;;;7.00;;
11646;SDS011;5880;52.342;9.662;2024-01-30T02:13:49;9.43;;;7.40;;
11646;SDS011;5880;52.342;9.662;2024-01-30T02:16:15;8.30;;;7.17;;
11646;SDS011;5880;52.342;9.662;2024-01-30T02:18:42;9.63;;;7.23;;
11646;SDS011;5880;52.342;9.662;2024-01-30T02:21:11;9.33;;;7.20;;
11646;SDS011;5880;52.342;9.662;2024-01-30T02:23:39;8.63;;;7.27;;
11646;SDS011;5880;52.342;9.662;2024-01-30T02:26:06;8.20;;;6.63;;
11646;SDS011;5880;52.342;9.662;2024-01-30T02:28:31;9.10;;;6.57;;
11646;SDS011;5880;52.342;9.662;2024-01-30T02:30:57;9.83;;;7.23;;
11646;SDS011;5880;52.342;9.662;2024-01-30T02:33:23;8.97;;;7.10;;
11646;SDS011;5880;52.342;9.662;2024-01-30T02:35:48;8.93;;;6.63;;
11646;SDS011;5880;52.342;9.662;2024-01-30T02:38:15;9.13;;;6.90;;
11646;SDS011;5880;52.342;9.662;2024-01-30T02:40:41;8.83;;;7.07;;
11646;SDS011;5880;52.342;9.662;2024-01-30T02:43:07;8.50;;;6.50;;
11646;SDS011;5880;52.342;9.662;2024-01-30T02:45:33;8.63;;;6.07;;
11646;SDS011;5880;52.342;9.662;2024-01-30T02:47:58;8.90;;;6.70;;
11646;SDS011;5880;52.342;9.662;2024-01-30T02:50:24;7.57;;;6.40;;
11646;SDS011;5880;52.342;9.662;2024-01-30T02:52:50;9.10;;;7.17;;
11646;SDS011;5880;52.342;9.662;2024-01-30T02:55:15;9.03;;;6.93;;
11646;SDS011;5880;52.342;9.662;2024-01-30T02:57:43;11.87;;;7.17;;
11646;SDS011;5880;52.342;9.662;2024-01-30T03:00:08;9.67;;;7.07;;
11646;SDS011;5880;52.342;9.662;2024-01-30T03:02:35;9.10;;;7.00;;
11646;SDS011;5880;52.342;9.662;2024-01-30T03:05:01;9.43;;;6.87;;
11646;SDS011;5880;52.342;9.662;2024-01-30T03:07:28;7.90;;;6.47;;
11646;SDS011;5880;52.342;9.662;2024-01-30T03:09:54;8.17;;;6.90;;
11646;SDS011;5880;52.342;9.662;2024-01-30T03:12:20;8.40;;;6.33;;
11646;SDS011;5880;52.342;9.662;2024-01-30T03:14:47;10.40;;;7.00;;
11646;SDS011;5880;52.342;9.662;2024-01-30T03:17:14;7.67;;;6.30;;
11646;SDS011;5880;52.342;9.662;2024-01-30T03:19:40;9.00;;;6.73;;
11646;SDS011;5880;52.342;9.662;2024-01-30T03:22:05;8.20;;;6.67;;
11646;SDS011;5880;52.342;9.662;2024-01-30T03:24:31;9.27;;;6.90;;
11646;SDS011;5880;52.342;9.662;2024-01-30T03:26:57;8.67;;;6.73;;
11646;SDS011;5880;52.342;9.662;2024-01-30T03:29:22;8.27;;;6.37;;
11646;SDS011;5880;52.342;9.662;2024-01-30T03:31:48;7.77;;;6.60;;
11646;SDS011;5880;52.342;9.662;2024-01-30T03:34:14;8.97;;;7.00;;
11646;SDS011;5880;52.342;9.662;2024-01-30T03:36:39;9.53;;;6.40;;
11646;SDS011;5880;52.342;9.662;2024-01-30T03:39:05;7.30;;;6.47;;
11646;SDS011;5880;52.342;9.662;2024-01-30T03:41:31;10.03;;;7.23;;
11646;SDS011;5880;52.342;9.662;2024-01-30T03:43:57;7.13;;;6.00;;
11646;SDS011;5880;52.342;9.662;2024-01-30T03:46:23;9.27;;;6.90;;
11646;SDS011;5880;52.342;9.662;2024-01-30T03:48:49;8.23;;;6.20;;
11646;SDS011;5880;52.342;9.662;2024-01-30T03:51:14;8.43;;;6.60;;
11646;SDS011;5880;52.342;9.662;2024-01-30T03:53:41;7.20;;;6.13;;
11646;SDS011;5880;52.342;9.662;2024-01-30T03:56:07;9.17;;;6.77;;
11646;SDS011;5880;52.342;9.662;2024-01-30T03:58:33;8.10;;;6.40;;
11646;SDS011;5880;52.342;9.662;2024-01-30T04:00:59;10.03;;;7.53;;
11646;SDS011;5880;52.342;9.662;2024-01-30T04:03:25;8.63;;;6.43;;
11646;SDS011;5880;52.342;9.662;2024-01-30T04:05:53;7.77;;;6.03;;
11646;SDS011;5880;52.342;9.662;2024-01-30T04:08:19;7.20;;;6.27;;
11646;SDS011;5880;52.342;9.662;2024-01-30T04:10:46;7.47;;;6.13;;
11646;SDS011;5880;52.342;9.662;2024-01-30T04:13:12;7.33;;;6.17;;
11646;SDS011;5880;52.342;9.662;2024-01-30T04:15:38;8.17;;;6.30;;
11646;SDS011;5880;52.342;9.662;2024-01-30T04:18:04;8.63;;;6.53;;
11646;SDS011;5880;52.342;9.662;2024-01-30T04:20:30;8.80;;;6.37;;
11646;SDS011;5880;52.342;9.662;2024-01-30T04:22:56;8.73;;;6.50;;
11646;SDS011;5880;52.342;9.662;2024-01-30T04:25:22;7.30;;;6.50;;
11646;SDS011;5880;52.342;9.662;2024-01-30T04:27:48;9.13;;;6.57;;
11646;SDS011;5880;52.342;9.662;2024-01-30T04:30:13;8.37;;;6.30;;
11646;SDS011;5880;52.342;9.662;2024-01-30T04:32:40;7.07;;;6.17;;
11646;SDS011;5880;52.342;9.662;2024-01-30T04:35:05;7.23;;;6.03;;
11646;SDS011;5880;52.342;9.662;2024-01-30T04:37:31;7.47;;;6.30;;
11646;SDS011;5880;52.342;9.662;2024-01-30T04:39:57;7.87;;;6.77;;
11646;SDS011;5880;52.342;9.662;2024-01-30T04:42:23;8.40;;;6.13;;
11646;SDS011;5880;52.342;9.662;2024-01-30T04:44:49;8.00;;;6.13;;
11646;SDS011;5880;52.342;9.662;2024-01-30T04:47:15;7.77;;;6.13;;
11646;SDS011;5880;52.342;9.662;2024-01-30T04:49:41;7.93;;;5.93;;
11646;SDS011;5880;52.342;9.662;2024-01-30T04:52:07;8.20;;;6.00;;
11646;SDS011;5880;52.342;9.662;2024-01-30T04:54:34;7.27;;;6.37;;
11646;SDS011;5880;52.342;9.662;2024-01-30T04:57:00;7.93;;;5.73;;
11646;SDS011;5880;52.342;9.662;2024-01-30T04:59:27;8.13;;;5.83;;
11646;SDS011;5880;52.342;9.662;2024-01-30T05:01:53;8.57;;;6.03;;
11646;SDS011;5880;52.342;9.662;2024-01-30T05:04:19;7.80;;;6.20;;
11646;SDS011;5880;52.342;9.662;2024-01-30T05:06:44;7.83;;;6.20;;
11646;SDS011;5880;52.342;9.662;2024-01-30T05:09:10;7.83;;;5.70;;
11646;SDS011;5880;52.342;9.662;2024-01-30T05:11:37;8.77;;;6.10;;
11646;SDS011;5880;52.342;9.662;2024-01-30T05:14:06;9.23;;;6.37;;
11646;SDS011;5880;52.342;9.662;2024-01-30T05:16:33;6.13;;;5.40;;
11646;SDS011;5880;52.342;9.662;2024-01-30T05:18:59;7.53;;;6.20;;
11646;SDS011;5880;52.342;9.662;2024-01-30T05:21:26;8.70;;;6.43;;
11646;SDS011;5880;52.342;9.662;2024-01-30T05:23:51;7.97;;;6.50;;
11646;SDS011;5880;52.342;9.662;2024-01-30T05:26:17;8.50;;;6.80;;
11646;SDS011;5880;52.342;9.662;2024-01-30T05:28:43;8.37;;;6.50;;
11646;SDS011;5880;52.342;9.662;2024-01-30T05:31:11;8.10;;;6.17;;
11646;SDS011;5880;52.342;9.662;2024-01-30T05:33:37;9.33;;;6.20;;
11646;SDS011;5880;52.342;9.662;2024-01-30T05:36:03;8.13;;;5.93;;
11646;SDS011;5880;52.342;9.662;2024-01-30T05:38:29;7.33;;;6.00;;
11646;SDS011;5880;52.342;9.662;2024-01-30T05:40:55;7.63;;;5.93;;
11646;SDS011;5880;52.342;9.662;2024-01-30T05:43:23;8.10;;;6.07;;
11646;SDS011;5880;52.342;9.662;2024-01-30T05:45:48;6.50;;;5.40;;
11646;SDS011;5880;52.342;9.662;2024-01-30T05:48:14;7.73;;;5.67;;
11646;SDS011;5880;52.342;9.662;2024-01-30T05:50:40;7.40;;;5.60;;
11646;SDS011;5880;52.342;9.662;2024-01-30T05:53:05;7.27;;;6.13;;
11646;SDS011;5880;52.342;9.662;2024-01-30T05:55:31;8.83;;;5.80;;
11646;SDS011;5880;52.342;9.662;2024-01-30T05:57:57;7.20;;;5.70;;
11646;SDS011;5880;52.342;9.662;2024-01-30T06:00:22;8.83;;;6.57;;
11646;SDS011;5880;52.342;9.662;2024-01-30T06:02:48;7.90;;;6.00;;
11646;SDS011;5880;52.342;9.662;2024-01-30T06:05:13;6.87;;;5.80;;
11646;SDS011;5880;52.342;9.662;2024-01-30T06:07:39;8.37;;;5.90;;
11646;SDS011;5880;52.342;9.662;2024-01-30T06:10:05;7.80;;;5.57;;
11646;SDS011;5880;52.342;9.662;2024-01-30T06:12:32;7.60;;;5.60;;
11646;SDS011;5880;52.342;9.662;2024-01-30T06:14:57;7.00;;;5.87;;
11646;SDS011;5880;52.342;9.662;2024-01-30T06:17:23;8.10;;;6.10;;
11646;SDS011;5880;52.342;9.662;2024-01-30T06:19:49;9.33;;;6.73;;
11646;SDS011;5880;52.342;9.662;2024-01-30T06:22:15;8.40;;;6.40;;
11646;SDS011;5880;52.342;9.662;2024-01-30T06:24:41;7.97;;;6.07;;
11646;SDS011;5880;52.342;9.662;2024-01-30T06:27:09;8.77;;;6.60;;
11646;SDS011;5880;52.342;9.662;2024-01-30T06:29:35;6.50;;;5.80;;
11646;SDS011;5880;52.342;9.662;2024-01-30T06:32:01;9.37;;;6.00;;
11646;SDS011;5880;52.342;9.662;2024-01-30T06:34:27;8.70;;;6.30;;
11646;SDS011;5880;52.342;9.662;2024-01-30T06:36:53;8.23;;;5.97;;
11646;SDS011;5880;52.342;9.662;2024-01-30T06:39:18;6.80;;;5.77;;
11646;SDS011;5880;52.342;9.662;2024-01-30T06:41:44;7.53;;;6.10;;
11646;SDS011;5880;52.342;9.662;2024-01-30T06:44:11;7.30;;;5.60;;
11646;SDS011;5880;52.342;9.662;2024-01-30T06:46:38;8.00;;;6.03;;
11646;SDS011;5880;52.342;9.662;2024-01-30T06:49:04;8.27;;;6.17;;
11646;SDS011;5880;52.342;9.662;2024-01-30T06:51:30;7.57;;;6.00;;
11646;SDS011;5880;52.342;9.662;2024-01-30T06:53:56;7.83;;;6.00;;
11646;SDS011;5880;52.342;9.662;2024-01-30T06:56:22;8.30;;;6.40;;
11646;SDS011;5880;52.342;9.662;2024-01-30T06:58:48;7.47;;;5.97;;
11646;SDS011;5880;52.342;9.662;2024-01-30T07:01:14;7.53;;;6.20;;
11646;SDS011;5880;52.342;9.662;2024-01-30T07:03:40;7.47;;;6.20;;
11646;SDS011;5880;52.342;9.662;2024-01-30T07:06:07;8.13;;;5.77;;
11646;SDS011;5880;52.342;9.662;2024-01-30T07:08:32;7.90;;;6.27;;
11646;SDS011;5880;52.342;9.662;2024-01-30T07:10:58;7.37;;;6.20;;
11646;SDS011;5880;52.342;9.662;2024-01-30T07:13:24;8.17;;;6.00;;
11646;SDS011;5880;52.342;9.662;2024-01-30T07:15:50;7.93;;;6.13;;
11646;SDS011;5880;52.342;9.662;2024-01-30T07:18:15;8.60;;;5.90;;
11646;SDS011;5880;52.342;9.662;2024-01-30T07:20:41;7.83;;;5.80;;
11646;SDS011;5880;52.342;9.662;2024-01-30T07:23:11;7.97;;;5.60;;
11646;SDS011;5880;52.342;9.662;2024-01-30T07:25:39;7.20;;;6.17;;
11646;SDS011;5880;52.342;9.662;2024-01-30T07:28:06;8.83;;;5.67;;
11646;SDS011;5880;52.342;9.662;2024-01-30T07:30:34;7.93;;;6.03;;
11646;SDS011;5880;52.342;9.662;2024-01-30T07:33:00;7.10;;;5.60;;
11646;SDS011;5880;52.342;9.662;2024-01-30T07:35:26;7.93;;;6.20;;
11646;SDS011;5880;52.342;9.662;2024-01-30T07:37:51;6.80;;;5.87;;
11646;SDS011;5880;52.342;9.662;2024-01-30T07:40:17;7.47;;;5.83;;
11646;SDS011;5880;52.342;9.662;2024-01-30T07:42:43;8.70;;;6.00;;
11646;SDS011;5880;52.342;9.662;2024-01-30T07:45:09;7.97;;;5.97;;
11646;SDS011;5880;52.342;9.662;2024-01-30T07:47:34;10.17;;;6.43;;
11646;SDS011;5880;52.342;9.662;2024-01-30T07:50:00;7.20;;;6.17;;
11646;SDS011;5880;52.342;9.662;2024-01-30T07:52:26;9.07;;;6.10;;
11646;SDS011;5880;52.342;9.662;2024-01-30T07:54:52;9.20;;;6.20;;
11646;SDS011;5880;52.342;9.662;2024-01-30T07:57:17;8.90;;;6.27;;
11646;SDS011;5880;52.342;9.662;2024-01-30T07:59:44;7.00;;;6.00;;
11646;SDS011;5880;52.342;9.662;2024-01-30T08:02:11;9.83;;;6.33;;
11646;SDS011;5880;52.342;9.662;2024-01-30T08:04:38;7.10;;;5.87;;
11646;SDS011;5880;52.342;9.662;2024-01-30T08:07:04;6.77;;;5.97;;
11646;SDS011;5880;52.342;9.662;2024-01-30T08:09:29;7.43;;;6.30;;
11646;SDS011;5880;52.342;9.662;2024-01-30T08:11:55;8.80;;;5.60;;
11646;SDS011;5880;52.342;9.662;2024-01-30T08:14:21;7.80;;;6.47;;
11646;SDS011;5880;52.342;9.662;2024-01-30T08:16:47;7.97;;;6.13;;
11646;SDS011;5880;52.342;9.662;2024-01-30T08:19:14;8.30;;;6.40;;
11646;SDS011;5880;52.342;9.662;2024-01-30T08:21:40;7.07;;;5.67;;
11646;SDS011;5880;52.342;9.662;2024-01-30T08:24:06;8.33;;;6.00;;
11646;SDS011;5880;52.342;9.662;2024-01-30T08:26:32;8.47;;;6.00;;
11646;SDS011;5880;52.342;9.662;2024-01-30T08:28:58;8.40;;;5.97;;
11646;SDS011;5880;52.342;9.662;2024-01-30T08:31:24;8.17;;;6.43;;
11646;SDS011;5880;52.342;9.662;2024-01-30T08:33:51;9.20;;;6.60;;
11646;SDS011;5880;52.342;9.662;2024-01-30T08:36:17;8.03;;;6.13;;
11646;SDS011;5880;52.342;9.662;2024-01-30T08:38:43;7.10;;;5.70;;
11646;SDS011;5880;52.342;9.662;2024-01-30T08:41:09;7.70;;;6.43;;
11646;SDS011;5880;52.342;9.662;2024-01-30T08:43:34;7.40;;;6.00;;
11646;SDS011;5880;52.342;9.662;2024-01-30T08:46:01;7.97;;;6.27;;
11646;SDS011;5880;52.342;9.662;2024-01-30T08:48:27;8.27;;;6.40;;
11646;SDS011;5880;52.342;9.662;2024-01-30T08:50:53;7.57;;;6.03;;
11646;SDS011;5880;52.342;9.662;2024-01-30T08:53:19;9.53;;;6.37;;
11646;SDS011;5880;52.342;9.662;2024-01-30T08:55:44;7.57;;;5.97;;
11646;SDS011;5880;52.342;9.662;2024-01-30T08:58:10;6.77;;;5.73;;
11646;SDS011;5880;52.342;9.662;2024-01-30T09:00:36;8.37;;;6.10;;
11646;SDS011;5880;52.342;9.662;2024-01-30T09:03:02;7.77;;;5.50;;
11646;SDS011;5880;52.342;9.662;2024-01-30T09:05:29;7.63;;;6.20;;
11646;SDS011;5880;52.342;9.662;2024-01-30T09:07:55;6.87;;;5.83;;
11646;SDS011;5880;52.342;9.662;2024-01-30T09:10:20;7.97;;;6.10;;
11646;SDS011;5880;52.342;9.662;2024-01-30T09:12:46;9.00;;;6.57;;
11646;SDS011;5880;52.342;9.662;2024-01-30T09:15:13;8.07;;;6.10;;
11646;SDS011;5880;52.342;9.662;2024-01-30T09:17:39;8.50;;;6.10;;
11646;SDS011;5880;52.342;9.662;2024-01-30T09:20:04;6.93;;;6.10;;
11646;SDS011;5880;52.342;9.662;2024-01-30T09:22:31;8.20;;;6.33;;
11646;SDS011;5880;52.342;9.662;2024-01-30T09:24:57;6.77;;;5.83;;
11646;SDS011;5880;52.342;9.662;2024-01-30T09:27:23;6.60;;;5.80;;
11646;SDS011;5880;52.342;9.662;2024-01-30T09:29:49;7.87;;;6.00;;
11646;SDS011;5880;52.342;9.662;2024-01-30T09:32:14;8.23;;;6.30;;
11646;SDS011;5880;52.342;9.662;2024-01-30T09:34:40;7.67;;;6.30;;
11646;SDS011;5880;52.342;9.662;2024-01-30T09:37:06;8.00;;;6.57;;
11646;SDS011;5880;52.342;9.662;2024-01-30T09:39:32;8.23;;;6.10;;
11646;SDS011;5880;52.342;9.662;2024-01-30T09:44:51;9.50;;;6.13;;
11646;SDS011;5880;52.342;9.662;2024-01-30T09:47:18;7.57;;;6.10;;
11646;SDS011;5880;52.342;9.662;2024-01-30T09:49:44;7.63;;;6.03;;
11646;SDS011;5880;52.342;9.662;2024-01-30T09:52:10;7.20;;;6.03;;
11646;SDS011;5880;52.342;9.662;2024-01-30T09:54:36;7.23;;;6.33;;
11646;SDS011;5880;52.342;9.662;2024-01-30T09:57:03;7.33;;;6.07;;
11646;SDS011;5880;52.342;9.662;2024-01-30T09:59:30;9.00;;;5.83;;
11646;SDS011;5880;52.342;9.662;2024-01-30T10:01:57;7.53;;;5.67;;
11646;SDS011;5880;52.342;9.662;2024-01-30T10:04:23;8.13;;;6.27;;
11646;SDS011;5880;52.342;9.662;2024-01-30T10:06:48;7.70;;;5.90;;
11646;SDS011;5880;52.342;9.662;2024-01-30T10:09:15;7.87;;;6.00;;
11646;SDS011;5880;52.342;9.662;2024-01-30T10:11:41;7.57;;;6.10;;
11646;SDS011;5880;52.342;9.662;2024-01-30T10:14:07;7.70;;;6.43;;
11646;SDS011;5880;52.342;9.662;2024-01-30T10:16:34;8.97;;;6.20;;
11646;SDS011;5880;52.342;9.662;2024-01-30T10:19:00;6.73;;;5.90;;
11646;SDS011;5880;52.342;9.662;2024-01-30T10:21:25;7.17;;;6.00;;
11646;SDS011;5880;52.342;9.662;2024-01-30T10:23:51;9.20;;;6.73;;
11646;SDS011;5880;52.342;9.662;2024-01-30T10:26:17;10.30;;;6.87;;
11646;SDS011;5880;52.342;9.662;2024-01-30T10:28:43;8.97;;;6.60;;
11646;SDS011;5880;52.342;9.662;2024-01-30T10:31:08;7.10;;;5.83;;
11646;SDS011;5880;52.342;9.662;2024-01-30T10:33:34;8.07;;;6.10;;
11646;SDS011;5880;52.342;9.662;2024-01-30T10:36:00;6.93;;;5.70;;
11646;SDS011;5880;52.342;9.662;2024-01-30T10:38:29;9.07;;;6.10;;
11646;SDS011;5880;52.342;9.662;2024-01-30T10:40:57;6.87;;;6.17;;
11646;SDS011;5880;52.342;9.662;2024-01-30T10:43:39;7.53;;;5.97;;
11646;SDS011;5880;52.342;9.662;2024-01-30T10:46:17;7.70;;;5.93;;
11646;SDS011;5880;52.342;9.662;2024-01-30T10:48:46;7.90;;;6.00;;
11646;SDS011;5880;52.342;9.662;2024-01-30T10:51:25;7.17;;;6.43;;
11646;SDS011;5880;52.342;9.662;2024-01-30T10:53:52;8.10;;;6.30;;
11646;SDS011;5880;52.342;9.662;2024-01-30T10:56:20;8.20;;;6.77;;
11646;SDS011;5880;52.342;9.662;2024-01-30T10:58:48;8.77;;;6.33;;
11646;SDS011;5880;52.342;9.662;2024-01-30T11:01:17;7.87;;;6.13;;
11646;SDS011;5880;52.342;9.662;2024-01-30T11:03:51;8.10;;;6.23;;
11646;SDS011;5880;52.342;9.662;2024-01-30T11:06:17;7.33;;;6.40;;
11646;SDS011;5880;52.342;9.662;2024-01-30T11:08:46;7.10;;;6.10;;
11646;SDS011;5880;52.342;9.662;2024-01-30T11:11:29;6.30;;;5.70;;
11646;SDS011;5880;52.342;9.662;2024-01-30T11:13:55;9.23;;;6.77;;
11646;SDS011;5880;52.342;9.662;2024-01-30T11:16:20;7.50;;;6.70;;
11646;SDS011;5880;52.342;9.662;2024-01-30T11:18:49;7.60;;;6.20;;
11646;SDS011;5880;52.342;9.662;2024-01-30T11:21:18;7.60;;;6.20;;
11646;SDS011;5880;52.342;9.662;2024-01-30T11:23:44;7.70;;;6.50;;
11646;SDS011;5880;52.342;9.662;2024-01-30T11:26:12;6.83;;;5.83;;
11646;SDS011;5880;52.342;9.662;2024-01-30T11:28:38;8.00;;;6.00;;
11646;SDS011;5880;52.342;9.662;2024-01-30T11:31:06;7.03;;;5.83;;
11646;SDS011;5880;52.342;9.662;2024-01-30T11:33:33;8.50;;;5.67;;
11646;SDS011;5880;52.342;9.662;2024-01-30T11:36:00;7.03;;;5.90;;
11646;SDS011;5880;52.342;9.662;2024-01-30T11:38:28;6.43;;;5.80;;
11646;SDS011;5880;52.342;9.662;2024-01-30T11:40:54;7.73;;;5.63;;
11646;SDS011;5880;52.342;9.662;2024-01-30T11:43:21;6.43;;;5.83;;
11646;SDS011;5880;52.342;9.662;2024-01-30T11:45:47;8.43;;;5.67;;
11646;SDS011;5880;52.342;9.662;2024-01-30T11:48:14;5.90;;;5.30;;
11646;SDS011;5880;52.342;9.662;2024-01-30T11:50:39;5.57;;;5.00;;
11646;SDS011;5880;52.342;9.662;2024-01-30T11:53:09;6.73;;;5.87;;
11646;SDS011;5880;52.342;9.662;2024-01-30T11:55:36;6.63;;;5.40;;
11646;SDS011;5880;52.342;9.662;2024-01-30T11:58:02;7.03;;;5.70;;
11646;SDS011;5880;52.342;9.662;2024-01-30T12:00:31;8.27;;;6.37;;
11646;SDS011;5880;52.342;9.662;2024-01-30T12:02:58;6.87;;;5.67;;
11646;SDS011;5880;52.342;9.662;2024-01-30T12:05:25;6.00;;;5.40;;
11646;SDS011;5880;52.342;9.662;2024-01-30T12:07:52;7.50;;;5.57;;
11646;SDS011;5880;52.342;9.662;2024-01-30T12:10:18;7.23;;;5.70;;
11646;SDS011;5880;52.342;9.662;2024-01-30T12:12:49;8.17;;;5.70;;
11646;SDS011;5880;52.342;9.662;2024-01-30T12:15:16;7.77;;;5.40;;
11646;SDS011;5880;52.342;9.662;2024-01-30T12:17:46;5.87;;;4.97;;
11646;SDS011;5880;52.342;9.662;2024-01-30T12:20:15;8.40;;;6.00;;
11646;SDS011;5880;52.342;9.662;2024-01-30T12:22:44;9.20;;;6.07;;
11646;SDS011;5880;52.342;9.662;2024-01-30T12:25:13;8.57;;;6.17;;
11646;SDS011;5880;52.342;9.662;2024-01-30T12:27:47;7.13;;;6.20;;
11646;SDS011;5880;52.342;9.662;2024-01-30T12:30:18;8.00;;;6.10;;
11646;SDS011;5880;52.342;9.662;2024-01-30T12:32:45;6.43;;;5.53;;
11646;SDS011;5880;52.342;9.662;2024-01-30T12:35:14;8.00;;;6.13;;
11646;SDS011;5880;52.342;9.662;2024-01-30T12:37:45;8.00;;;6.47;;
11646;SDS011;5880;52.342;9.662;2024-01-30T12:40:16;9.07;;;6.27;;
11646;SDS011;5880;52.342;9.662;2024-01-30T12:42:42;7.53;;;6.03;;
11646;SDS011;5880;52.342;9.662;2024-01-30T12:45:13;7.30;;;5.83;;
11646;SDS011;5880;52.342;9.662;2024-01-30T12:47:40;7.97;;;5.80;;
11646;SDS011;5880;52.342;9.662;2024-01-30T12:50:07;6.50;;;5.63;;
11646;SDS011;5880;52.342;9.662;2024-01-30T12:52:33;5.90;;;5.28;;
11646;SDS011;5880;52.342;9.662;2024-01-30T12:55:00;7.03;;;5.57;;
11646;SDS011;5880;52.342;9.662;2024-01-30T12:57:26;6.57;;;5.30;;
11646;SDS011;5880;52.342;9.662;2024-01-30T12:59:52;9.33;;;6.50;;
11646;SDS011;5880;52.342;9.662;2024-01-30T13:02:17;6.53;;;5.67;;
11646;SDS011;5880;52.342;9.662;2024-01-30T13:04:43;7.20;;;5.50;;
11646;SDS011;5880;52.342;9.662;2024-01-30T13:07:09;7.17;;;6.07;;
11646;SDS011;5880;52.342;9.662;2024-01-30T13:09:35;9.07;;;6.10;;
11646;SDS011;5880;52.342;9.662;2024-01-30T13:12:01;7.63;;;5.80;;
11646;SDS011;5880;52.342;9.662;2024-01-30T13:14:27;6.20;;;5.60;;
11646;SDS011;5880;52.342;9.662;2024-01-30T13:16:53;7.47;;;5.93;;
11646;SDS011;5880;52.342;9.662;2024-01-30T13:19:18;7.60;;;5.82;;
11646;SDS011;5880;52.342;9.662;2024-01-30T13:21:44;7.30;;;6.23;;
11646;SDS011;5880;52.342;9.662;2024-01-30T13:24:10;7.00;;;5.93;;
11646;SDS011;5880;52.342;9.662;2024-01-30T13:26:36;6.47;;;5.77;;
11646;SDS011;5880;52.342;9.662;2024-01-30T13:29:01;6.95;;;5.93;;
11646;SDS011;5880;52.342;9.662;2024-01-30T13:31:28;6.40;;;5.77;;
11646;SDS011;5880;52.342;9.662;2024-01-30T13:33:55;6.70;;;5.80;;
11646;SDS011;5880;52.342;9.662;2024-01-30T13:36:20;7.00;;;6.30;;
11646;SDS011;5880;52.342;9.662;2024-01-30T13:38:47;7.93;;;6.10;;
11646;SDS011;5880;52.342;9.662;2024-01-30T13:41:13;7.03;;;5.80;;
11646;SDS011;5880;52.342;9.662;2024-01-30T13:43:39;7.83;;;5.90;;
11646;SDS011;5880;52.342;9.662;2024-01-30T13:46:04;6.60;;;5.90;;
11646;SDS011;5880;52.342;9.662;2024-01-30T13:48:31;6.63;;;5.43;;
11646;SDS011;5880;52.342;9.662;2024-01-30T13:50:57;6.13;;;5.47;;
11646;SDS011;5880;52.342;9.662;2024-01-30T13:53:22;7.73;;;5.47;;
11646;SDS011;5880;52.342;9.662;2024-01-30T13:55:48;7.97;;;5.93;;
11646;SDS011;5880;52.342;9.662;2024-01-30T13:58:14;7.33;;;5.77;;
11646;SDS011;5880;52.342;9.662;2024-01-30T14:00:39;8.73;;;5.80;;
11646;SDS011;5880;52.342;9.662;2024-01-30T14:03:05;7.97;;;5.90;;
11646;SDS011;5880;52.342;9.662;2024-01-30T14:05:31;7.87;;;6.40;;
11646;SDS011;5880;52.342;9.662;2024-01-30T14:07:57;6.53;;;5.83;;
11646;SDS011;5880;52.342;9.662;2024-01-30T14:10:25;7.03;;;5.87;;
11646;SDS011;5880;52.342;9.662;2024-01-30T14:12:51;7.50;;;6.03;;
11646;SDS011;5880;52.342;9.662;2024-01-30T14:15:16;7.23;;;5.70;;
11646;SDS011;5880;52.342;9.662;2024-01-30T14:17:46;7.70;;;5.70;;
11646;SDS011;5880;52.342;9.662;2024-01-30T14:20:13;7.90;;;6.33;;
11646;SDS011;5880;52.342;9.662;2024-01-30T14:22:39;7.37;;;6.00;;
11646;SDS011;5880;52.342;9.662;2024-01-30T14:25:05;9.27;;;6.93;;
11646;SDS011;5880;52.342;9.662;2024-01-30T14:27:32;7.77;;;6.40;;
11646;SDS011;5880;52.342;9.662;2024-01-30T14:29:58;9.47;;;7.40;;
11646;SDS011;5880;52.342;9.662;2024-01-30T14:32:23;10.37;;;8.27;;
11646;SDS011;5880;52.342;9.662;2024-01-30T14:34:50;8.43;;;7.13;;
11646;SDS011;5880;52.342;9.662;2024-01-30T14:37:17;7.83;;;6.47;;
11646;SDS011;5880;52.342;9.662;2024-01-30T14:39:44;9.20;;;6.33;;
11646;SDS011;5880;52.342;9.662;2024-01-30T14:42:10;7.20;;;6.10;;
11646;SDS011;5880;52.342;9.662;2024-01-30T14:44:35;6.83;;;5.63;;
11646;SDS011;5880;52.342;9.662;2024-01-30T14:47:01;6.80;;;5.63;;
11646;SDS011;5880;52.342;9.662;2024-01-30T14:49:27;8.20;;;6.37;;
11646;SDS011;5880;52.342;9.662;2024-01-30T14:51:53;8.00;;;5.90;;
11646;SDS011;5880;52.342;9.662;2024-01-30T14:54:19;7.43;;;6.60;;
11646;SDS011;5880;52.342;9.662;2024-01-30T14:56:44;7.17;;;6.37;;
11646;SDS011;5880;52.342;9.662;2024-01-30T14:59:11;8.20;;;5.77;;